createdAt,value
2024-02-21T00:00:07.008Z,18.45
2024-02-21T00:02:34.420Z,15.75
2024-02-21T00:05:03.935Z,12.05
2024-02-21T00:07:31.507Z,13.65
2024-02-21T00:09:59.062Z,14.15
2024-02-21T00:12:26.430Z,10.18
2024-02-21T00:14:53.798Z,17.30
2024-02-21T00:17:21.169Z,17.40
2024-02-21T00:19:48.609Z,10.10
2024-02-21T00:22:17.352Z,12.48
2024-02-21T00:24:44.754Z,10.82
2024-02-21T00:27:12.109Z,12.95
2024-02-21T00:29:39.479Z,14.73
2024-02-21T00:32:07.286Z,7.90
2024-02-21T00:34:34.801Z,12.60
2024-02-21T00:37:02.227Z,15.18
2024-02-21T00:39:31.203Z,10.18
2024-02-21T00:41:58.648Z,10.40
2024-02-21T00:44:26.122Z,12.43
2024-02-21T00:49:21.059Z,15.27
2024-02-21T00:51:49.091Z,18.38
2024-02-21T00:54:17.188Z,12.88
2024-02-21T00:56:46.030Z,9.00
2024-02-21T00:59:13.473Z,15.63
2024-02-21T01:01:43.111Z,12.75
2024-02-21T01:04:11.021Z,10.98
2024-02-21T01:06:38.507Z,9.23
2024-02-21T01:09:05.934Z,11.07
2024-02-21T01:11:33.393Z,9.75
2024-02-21T01:14:02.208Z,14.45
2024-02-21T01:16:29.642Z,13.07
2024-02-21T01:18:57.163Z,11.25
2024-02-21T01:21:24.570Z,16.08
2024-02-21T01:23:51.960Z,11.65
2024-02-21T01:26:19.412Z,9.45
2024-02-21T01:28:46.934Z,12.63
2024-02-21T01:31:16.310Z,13.38
2024-02-21T01:33:43.871Z,11.40
2024-02-21T01:36:11.368Z,15.80
2024-02-21T01:38:38.809Z,11.23
2024-02-21T01:41:06.296Z,12.90
2024-02-21T01:43:33.759Z,8.88
2024-02-21T01:46:01.265Z,10.18
2024-02-21T01:48:30.076Z,10.90
2024-02-21T01:50:58.652Z,10.25
2024-02-21T01:53:29.676Z,12.50
2024-02-21T01:55:57.416Z,11.77
2024-02-21T01:58:25.770Z,10.82
2024-02-21T02:00:53.442Z,13.77
2024-02-21T02:03:20.909Z,9.45
2024-02-21T02:05:50.317Z,11.30
2024-02-21T02:08:18.331Z,10.73
2024-02-21T02:10:46.833Z,9.75
2024-02-21T02:13:14.481Z,12.75
2024-02-21T02:15:42.390Z,10.65
2024-02-21T02:18:09.833Z,13.25
2024-02-21T02:20:37.599Z,9.70
2024-02-21T02:23:08.948Z,17.00
2024-02-21T02:25:38.083Z,12.63
2024-02-21T02:28:05.702Z,10.52
2024-02-21T02:30:34.140Z,12.20
2024-02-21T02:33:01.619Z,10.70
2024-02-21T02:35:29.074Z,12.77
2024-02-21T02:37:56.532Z,16.45
2024-02-21T02:40:24.026Z,13.23
2024-02-21T02:42:56.059Z,11.70
2024-02-21T02:45:24.376Z,11.52
2024-02-21T02:47:51.792Z,11.38
2024-02-21T02:50:19.219Z,10.80
2024-02-21T02:52:46.654Z,12.57
2024-02-21T02:55:14.167Z,10.27
2024-02-21T02:57:42.772Z,13.90
2024-02-21T03:00:12.219Z,12.45
2024-02-21T03:02:40.284Z,8.93
2024-02-21T03:05:13.626Z,9.70
2024-02-21T03:07:41.068Z,12.05
2024-02-21T03:10:08.745Z,9.10
2024-02-21T03:12:36.113Z,12.63
2024-02-21T03:15:03.602Z,9.23
2024-02-21T03:17:32.828Z,10.30
2024-02-21T03:20:01.044Z,12.45
2024-02-21T03:22:28.613Z,9.15
2024-02-21T03:24:55.992Z,8.57
2024-02-21T03:27:23.421Z,10.20
2024-02-21T03:29:50.817Z,8.70
2024-02-21T03:32:18.267Z,9.13
2024-02-21T03:34:47.387Z,12.68
2024-02-21T03:37:15.775Z,12.43
2024-02-21T03:39:43.256Z,18.48
2024-02-21T03:42:10.627Z,15.85
2024-02-21T03:44:38.737Z,14.48
2024-02-21T03:47:06.569Z,12.70
2024-02-21T03:49:34.128Z,11.10
2024-02-21T03:52:02.945Z,13.75
2024-02-21T03:54:30.321Z,11.57
2024-02-21T03:56:57.723Z,16.38
2024-02-21T03:59:25.110Z,14.93
2024-02-21T04:01:53.533Z,18.25
2024-02-21T04:04:20.986Z,16.23
2024-02-21T04:06:49.007Z,43.58
2024-02-21T04:09:17.926Z,21.08
2024-02-21T04:11:45.678Z,14.63
2024-02-21T04:14:13.454Z,16.67
2024-02-21T04:16:41.391Z,15.70
2024-02-21T04:19:09.554Z,18.92
2024-02-21T04:21:37.323Z,16.15
2024-02-21T04:24:07.021Z,15.13
2024-02-21T04:26:36.257Z,15.35
2024-02-21T04:29:03.924Z,12.75
2024-02-21T04:31:31.481Z,13.32
2024-02-21T04:33:58.893Z,17.25
2024-02-21T04:36:26.302Z,16.73
2024-02-21T04:38:53.673Z,13.57
2024-02-21T04:41:21.037Z,18.65
2024-02-21T04:43:50.389Z,12.27
2024-02-21T04:46:17.933Z,16.63
2024-02-21T04:48:45.360Z,12.93
2024-02-21T04:51:13.887Z,15.60
2024-02-21T04:53:41.567Z,14.00
2024-02-21T04:56:09.012Z,16.33
2024-02-21T04:58:39.582Z,11.18
2024-02-21T05:01:08.942Z,11.05
2024-02-21T05:03:36.488Z,32.40
2024-02-21T05:06:04.118Z,12.35
2024-02-21T05:08:31.533Z,15.65
2024-02-21T05:10:58.934Z,13.52
2024-02-21T05:13:26.866Z,13.77
2024-02-21T05:15:54.306Z,18.75
2024-02-21T05:18:23.239Z,14.00
2024-02-21T05:20:50.699Z,11.30
2024-02-21T05:23:18.119Z,11.80
2024-02-21T05:25:45.515Z,11.80
2024-02-21T05:28:12.924Z,11.50
2024-02-21T05:30:41.946Z,13.68
2024-02-21T05:33:08.623Z,15.40
2024-02-21T05:35:37.593Z,13.07
2024-02-21T05:38:07.869Z,12.13
2024-02-21T05:40:35.425Z,11.10
2024-02-21T05:43:03.160Z,11.95
2024-02-21T05:45:30.532Z,14.98
2024-02-21T05:47:58.376Z,13.50
2024-02-21T05:50:26.040Z,13.63
2024-02-21T05:52:55.040Z,14.68
2024-02-21T05:55:22.492Z,10.23
2024-02-21T05:57:49.989Z,13.65
2024-02-21T06:00:17.834Z,16.92
2024-02-21T06:02:45.238Z,12.38
2024-02-21T06:05:12.692Z,14.02
2024-02-21T06:07:40.338Z,10.77
2024-02-21T06:10:09.764Z,12.27
2024-02-21T06:12:37.238Z,10.88
2024-02-21T06:15:04.894Z,12.25
2024-02-21T06:17:32.318Z,15.75
2024-02-21T06:19:59.957Z,15.93
2024-02-21T06:22:27.426Z,14.65
2024-02-21T06:24:55.324Z,10.68
2024-02-21T06:27:25.545Z,17.92
2024-02-21T06:29:52.976Z,12.55
2024-02-21T06:32:20.391Z,17.27
2024-02-21T06:34:47.825Z,16.92
2024-02-21T06:37:15.256Z,15.25
2024-02-21T06:39:42.846Z,12.80
2024-02-21T06:42:10.211Z,8.50
2024-02-21T06:44:41.665Z,10.52
2024-02-21T06:47:09.833Z,11.88
2024-02-21T06:49:38.016Z,12.52
2024-02-21T06:52:06.045Z,6.25
2024-02-21T06:54:33.458Z,17.30
2024-02-21T06:57:01.045Z,12.60
2024-02-21T06:59:28.391Z,12.70
2024-02-21T07:01:57.658Z,12.43
2024-02-21T07:04:25.231Z,8.02
2024-02-21T07:06:52.860Z,13.05
2024-02-21T07:09:20.336Z,13.95
2024-02-21T07:11:47.781Z,17.75
2024-02-21T07:14:15.929Z,13.77
2024-02-21T07:16:43.438Z,14.00
2024-02-21T07:19:12.406Z,13.07
2024-02-21T07:21:42.389Z,14.13
2024-02-21T07:24:09.799Z,13.50
2024-02-21T07:26:37.226Z,13.27
2024-02-21T07:29:04.668Z,16.05
2024-02-21T07:31:32.489Z,12.02
2024-02-21T07:33:59.938Z,15.63
2024-02-21T07:36:30.074Z,14.82
2024-02-21T07:38:57.507Z,12.95
2024-02-21T07:41:24.938Z,13.32
2024-02-21T07:43:53.049Z,11.90
2024-02-21T07:46:20.598Z,13.15
2024-02-21T07:48:48.229Z,14.43
2024-02-21T07:51:17.822Z,13.55
2024-02-21T07:53:47.261Z,14.65
2024-02-21T07:56:14.953Z,13.90
2024-02-21T07:58:42.397Z,13.93
2024-02-21T08:01:10.051Z,14.45
2024-02-21T08:03:37.467Z,16.67
2024-02-21T08:06:05.309Z,8.15
2024-02-21T08:08:32.705Z,15.43
2024-02-21T08:11:01.542Z,15.02
2024-02-21T08:13:30.037Z,10.10
2024-02-21T08:15:58.236Z,11.65
2024-02-21T08:18:25.864Z,19.13
2024-02-21T08:20:53.367Z,19.40
2024-02-21T08:23:21.127Z,28.95
2024-02-21T08:25:48.675Z,12.95
2024-02-21T08:28:17.491Z,19.90
2024-02-21T08:30:49.094Z,12.70
2024-02-21T08:33:17.707Z,10.68
2024-02-21T08:35:45.238Z,12.18
2024-02-21T08:38:12.691Z,11.32
2024-02-21T08:40:40.190Z,16.73
2024-02-21T08:43:07.614Z,19.65
2024-02-21T08:45:36.359Z,27.38
2024-02-21T08:48:04.034Z,12.53
2024-02-21T08:50:31.667Z,9.68
2024-02-21T08:52:59.452Z,10.80
2024-02-21T08:55:27.181Z,10.95
2024-02-21T08:57:54.651Z,13.68
2024-02-21T09:00:27.947Z,12.18
2024-02-21T09:02:57.860Z,10.27
2024-02-21T09:05:26.262Z,9.90
2024-02-21T09:07:53.939Z,10.60
2024-02-21T09:10:21.439Z,11.68
2024-02-21T09:12:49.453Z,12.70
2024-02-21T09:15:16.973Z,10.98
2024-02-21T09:17:44.393Z,12.85
2024-02-21T09:20:13.631Z,10.73
2024-02-21T09:22:41.794Z,11.80
2024-02-21T09:25:12.556Z,10.50
2024-02-21T09:27:40.139Z,11.20
2024-02-21T09:30:08.499Z,8.95
2024-02-21T09:32:36.109Z,8.53
2024-02-21T09:35:04.070Z,8.90
2024-02-21T09:37:33.038Z,10.75
2024-02-21T09:40:00.471Z,9.60
2024-02-21T09:42:29.582Z,11.18
2024-02-21T09:44:57.002Z,8.75
2024-02-21T09:47:26.444Z,7.72
2024-02-21T09:49:54.310Z,11.35
2024-02-21T09:52:22.763Z,9.20
2024-02-21T09:54:53.619Z,11.83
2024-02-21T09:57:22.121Z,12.85
2024-02-21T09:59:51.164Z,8.10
2024-02-21T10:02:18.834Z,7.00
2024-02-21T10:04:46.479Z,8.82
2024-02-21T10:07:14.727Z,11.75
2024-02-21T10:09:43.214Z,10.85
2024-02-21T10:12:13.232Z,10.43
2024-02-21T10:14:41.368Z,8.85
2024-02-21T10:17:11.484Z,8.55
2024-02-21T10:19:41.101Z,10.02
2024-02-21T10:24:38.628Z,12.95
2024-02-21T10:27:09.218Z,10.95
2024-02-21T10:29:38.080Z,6.90
2024-02-21T10:32:06.413Z,7.30
2024-02-21T10:34:33.978Z,9.55
2024-02-21T10:37:02.135Z,7.80
2024-02-21T10:39:31.480Z,9.57
2024-02-21T10:42:01.604Z,7.65
2024-02-21T10:46:57.662Z,7.97
2024-02-21T10:49:26.998Z,9.02
2024-02-21T10:54:27.317Z,7.25
2024-02-21T10:56:55.955Z,8.73
2024-02-21T10:59:24.106Z,7.53
2024-02-21T11:01:54.497Z,6.80
2024-02-21T11:04:26.176Z,9.20
2024-02-21T11:06:54.426Z,10.98
2024-02-21T11:09:31.385Z,9.15
2024-02-21T11:11:59.841Z,11.50
2024-02-21T11:14:28.581Z,8.43
2024-02-21T11:16:57.197Z,8.05
2024-02-21T11:19:27.349Z,5.97
2024-02-21T11:21:55.745Z,7.63
2024-02-21T11:24:30.915Z,8.00
2024-02-21T11:26:58.688Z,5.97
2024-02-21T11:29:26.788Z,8.38
2024-02-21T11:31:54.960Z,7.50
2024-02-21T11:34:22.600Z,7.45
2024-02-21T11:36:52.024Z,7.00
2024-02-21T11:41:47.632Z,6.63
2024-02-21T11:44:15.026Z,6.97
2024-02-21T11:46:42.516Z,6.38
2024-02-21T11:49:09.973Z,7.85
2024-02-21T11:51:37.394Z,7.93
2024-02-21T11:54:07.678Z,7.03
2024-02-21T11:56:36.802Z,7.47
2024-02-21T11:59:04.495Z,7.80
2024-02-21T12:01:32.433Z,8.18
2024-02-21T12:03:59.824Z,6.10
2024-02-21T12:06:27.278Z,9.02
2024-02-21T12:08:59.755Z,6.78
2024-02-21T12:11:28.475Z,8.27
2024-02-21T12:14:04.609Z,10.23
2024-02-21T12:16:32.426Z,6.43
2024-02-21T12:19:00.259Z,5.43
2024-02-21T12:21:29.536Z,11.45
2024-02-21T12:23:57.231Z,6.70
2024-02-21T12:26:24.893Z,9.35
2024-02-21T12:28:53.699Z,10.02
2024-02-21T12:31:21.432Z,6.70
2024-02-21T12:33:49.555Z,8.15
2024-02-21T12:36:16.990Z,10.43
2024-02-21T12:38:44.960Z,6.95
2024-02-21T12:41:12.323Z,5.75
2024-02-21T12:43:39.789Z,9.20
2024-02-21T12:46:08.945Z,7.57
2024-02-21T12:48:36.294Z,8.77
2024-02-21T12:51:04.020Z,8.32
2024-02-21T12:53:33.749Z,4.90
2024-02-21T12:56:01.982Z,7.57
2024-02-21T12:58:32.699Z,10.32
2024-02-21T13:01:00.264Z,8.57
2024-02-21T13:03:31.207Z,7.85
2024-02-21T13:06:00.552Z,6.80
2024-02-21T13:08:28.224Z,7.15
2024-02-21T13:10:56.116Z,8.70
2024-02-21T13:13:23.652Z,5.10
2024-02-21T13:15:51.057Z,5.68
2024-02-21T13:18:18.541Z,8.80
2024-02-21T13:20:47.406Z,7.20
2024-02-21T13:23:14.929Z,8.65
2024-02-21T13:25:42.554Z,6.60
2024-02-21T13:28:10.860Z,8.38
2024-02-21T13:30:38.302Z,8.18
2024-02-21T13:33:05.955Z,7.53
2024-02-21T13:35:33.519Z,6.40
2024-02-21T13:38:02.420Z,5.82
2024-02-21T13:40:29.901Z,5.40
2024-02-21T13:42:57.330Z,6.57
2024-02-21T13:45:24.666Z,8.13
2024-02-21T13:47:52.100Z,4.43
2024-02-21T13:50:20.391Z,6.32
2024-02-21T13:52:47.822Z,5.78
2024-02-21T13:55:16.654Z,5.90
2024-02-21T13:57:44.003Z,6.33
2024-02-21T14:00:12.355Z,6.68
2024-02-21T14:02:39.993Z,6.82
2024-02-21T14:05:07.918Z,6.45
2024-02-21T14:07:35.400Z,7.80
2024-02-21T14:10:02.800Z,7.50
2024-02-21T14:12:33.031Z,5.45
2024-02-21T14:15:00.394Z,7.60
2024-02-21T14:17:27.843Z,7.35
2024-02-21T14:19:55.345Z,11.02
2024-02-21T14:22:22.776Z,8.98
2024-02-21T14:24:50.171Z,6.15
2024-02-21T14:27:17.656Z,6.95
2024-02-21T14:29:46.370Z,5.68
2024-02-21T14:32:14.941Z,8.27
2024-02-21T14:34:42.624Z,7.47
2024-02-21T14:37:10.102Z,6.15
2024-02-21T14:39:37.608Z,9.93
2024-02-21T14:42:05.052Z,8.82
2024-02-21T14:44:32.442Z,8.45
2024-02-21T14:47:01.567Z,7.50
2024-02-21T14:49:29.895Z,4.72
2024-02-21T14:51:57.447Z,5.70
2024-02-21T14:54:24.941Z,7.25
2024-02-21T14:56:52.340Z,8.68
2024-02-21T14:59:26.017Z,8.90
2024-02-21T15:02:02.323Z,11.55
2024-02-21T15:04:29.934Z,10.65
2024-02-21T15:06:57.520Z,7.97
2024-02-21T15:09:25.037Z,5.15
2024-02-21T15:11:52.461Z,9.18
2024-02-21T15:14:24.415Z,12.25
2024-02-21T15:16:53.107Z,7.10
2024-02-21T15:19:21.926Z,9.00
2024-02-21T15:21:49.347Z,8.33
2024-02-21T15:24:17.736Z,9.05
2024-02-21T15:26:45.168Z,6.13
2024-02-21T15:29:12.691Z,6.65
2024-02-21T15:31:40.192Z,8.32
2024-02-21T15:34:07.946Z,6.72
2024-02-21T15:36:36.723Z,8.45
2024-02-21T15:39:04.333Z,9.85
2024-02-21T15:41:31.776Z,7.72
2024-02-21T15:44:00.507Z,11.32
2024-02-21T15:46:28.041Z,6.72
2024-02-21T15:48:55.965Z,7.47
2024-02-21T15:51:24.479Z,6.32
2024-02-21T15:53:53.299Z,6.97
2024-02-21T15:56:20.977Z,10.60
2024-02-21T15:58:48.468Z,8.52
2024-02-21T16:01:16.075Z,9.48
2024-02-21T16:03:43.554Z,7.32
2024-02-21T16:06:11.250Z,7.45
2024-02-21T16:08:41.949Z,6.38
2024-02-21T16:11:15.498Z,6.15
2024-02-21T16:13:43.004Z,7.75
2024-02-21T16:16:10.432Z,8.43
2024-02-21T16:18:37.777Z,12.52
2024-02-21T16:21:06.355Z,7.40
2024-02-21T16:23:34.582Z,6.95
2024-02-21T16:26:02.566Z,5.43
2024-02-21T16:28:31.385Z,9.98
2024-02-21T16:30:59.275Z,8.25
2024-02-21T16:33:26.889Z,8.15
2024-02-21T16:35:55.717Z,10.55
2024-02-21T16:38:23.314Z,7.37
2024-02-21T16:40:51.332Z,6.57
2024-02-21T16:43:18.830Z,8.27
2024-02-21T16:45:47.685Z,8.68
2024-02-21T16:48:15.090Z,8.07
2024-02-21T16:50:49.599Z,6.55
2024-02-21T16:53:25.816Z,8.10
2024-02-21T16:55:54.058Z,13.48
2024-02-21T16:58:21.607Z,7.47
2024-02-21T17:00:50.555Z,9.68
2024-02-21T17:03:21.234Z,4.23
2024-02-21T17:05:54.920Z,8.07
2024-02-21T17:08:26.293Z,7.82
2024-02-21T17:10:54.089Z,5.05
2024-02-21T17:13:22.025Z,7.15
2024-02-21T17:15:51.221Z,5.40
2024-02-21T17:18:18.718Z,6.68
2024-02-21T17:20:46.239Z,9.52
2024-02-21T17:23:14.226Z,8.55
2024-02-21T17:25:42.004Z,5.50
2024-02-21T17:28:09.579Z,7.18
2024-02-21T17:30:37.213Z,6.70
2024-02-21T17:33:08.217Z,7.80
2024-02-21T17:35:36.088Z,6.93
2024-02-21T17:38:04.379Z,6.18
2024-02-21T17:40:31.950Z,11.57
2024-02-21T17:42:59.379Z,6.50
2024-02-21T17:45:26.868Z,6.45
2024-02-21T17:47:54.344Z,3.33
2024-02-21T17:50:23.430Z,7.70
2024-02-21T17:52:50.981Z,10.15
2024-02-21T17:55:18.439Z,4.25
2024-02-21T17:57:46.095Z,4.93
2024-02-21T18:00:13.823Z,9.63
2024-02-21T18:02:41.205Z,5.18
2024-02-21T18:05:09.039Z,5.22
2024-02-21T18:07:38.022Z,5.47
2024-02-21T18:10:05.893Z,5.77
2024-02-21T18:12:33.936Z,5.50
2024-02-21T18:15:02.087Z,7.32
2024-02-21T18:17:29.566Z,6.00
2024-02-21T18:19:57.679Z,5.72
2024-02-21T18:22:25.069Z,5.13
2024-02-21T18:24:53.767Z,5.88
2024-02-21T18:27:23.109Z,8.15
2024-02-21T18:29:50.659Z,6.63
2024-02-21T18:32:18.668Z,4.90
2024-02-21T18:34:46.232Z,6.05
2024-02-21T18:37:13.636Z,7.47
2024-02-21T18:39:41.006Z,4.03
2024-02-21T18:42:09.707Z,8.35
2024-02-21T18:44:37.994Z,6.85
2024-02-21T18:47:05.786Z,8.07
2024-02-21T18:49:33.361Z,6.63
2024-02-21T18:52:01.157Z,4.72
2024-02-21T18:54:28.569Z,3.80
2024-02-21T18:56:55.946Z,7.88
2024-02-21T18:59:24.639Z,6.80
2024-02-21T19:01:52.025Z,6.82
2024-02-21T19:04:19.439Z,5.90
2024-02-21T19:06:47.282Z,5.78
2024-02-21T19:09:14.646Z,4.85
2024-02-21T19:11:42.054Z,5.43
2024-02-21T19:14:09.558Z,9.65
2024-02-21T19:16:38.399Z,6.13
2024-02-21T19:19:05.834Z,7.78
2024-02-21T19:21:33.224Z,7.25
2024-02-21T19:24:00.629Z,9.57
2024-02-21T19:26:28.001Z,7.00
2024-02-21T19:28:55.787Z,6.95
2024-02-21T19:31:23.295Z,7.70
2024-02-21T19:33:52.086Z,6.75
2024-02-21T19:36:20.340Z,9.13
2024-02-21T19:38:49.268Z,6.57
2024-02-21T19:41:17.032Z,6.13
2024-02-21T19:43:44.506Z,7.07
2024-02-21T19:46:12.610Z,5.53
2024-02-21T19:48:40.211Z,7.78
2024-02-21T19:51:08.949Z,5.93
2024-02-21T19:53:36.401Z,8.27
2024-02-21T19:56:03.915Z,6.10
2024-02-21T19:58:33.271Z,6.07
2024-02-21T20:01:00.800Z,7.70
2024-02-21T20:03:28.993Z,4.57
2024-02-21T20:05:56.497Z,7.78
2024-02-21T20:08:25.387Z,7.03
2024-02-21T20:10:53.062Z,3.90
2024-02-21T20:13:20.628Z,5.90
2024-02-21T20:15:48.020Z,4.85
2024-02-21T20:18:15.476Z,6.47
2024-02-21T20:20:43.792Z,4.07
2024-02-21T20:23:16.307Z,8.35
2024-02-21T20:25:45.438Z,5.72
2024-02-21T20:28:14.603Z,5.80
2024-02-21T20:30:42.040Z,5.72
2024-02-21T20:33:09.541Z,5.03
2024-02-21T20:35:37.135Z,8.07
2024-02-21T20:38:06.606Z,4.30
2024-02-21T20:40:34.050Z,4.20
2024-02-21T20:43:04.727Z,6.13
2024-02-21T20:45:32.135Z,5.97
2024-02-21T20:47:59.582Z,10.50
2024-02-21T20:50:27.078Z,3.97
2024-02-21T20:52:54.510Z,6.95
2024-02-21T20:55:25.645Z,7.55
2024-02-21T20:57:53.743Z,7.80
2024-02-21T21:00:23.694Z,7.93
2024-02-21T21:02:51.220Z,8.05
2024-02-21T21:05:19.515Z,5.85
2024-02-21T21:07:47.089Z,9.57
2024-02-21T21:10:16.744Z,7.80
2024-02-21T21:12:44.238Z,8.90
2024-02-21T21:15:12.113Z,8.70
2024-02-21T21:17:40.922Z,14.50
2024-02-21T21:20:12.813Z,7.33
2024-02-21T21:22:41.590Z,8.52
2024-02-21T21:25:10.086Z,6.32
2024-02-21T21:27:37.789Z,6.95
2024-02-21T21:30:05.934Z,4.57
2024-02-21T21:32:33.649Z,6.40
2024-02-21T21:35:02.453Z,6.18
2024-02-21T21:37:30.188Z,4.20
2024-02-21T21:39:59.436Z,4.90
2024-02-21T21:42:26.961Z,4.80
2024-02-21T21:44:54.382Z,4.45
2024-02-21T21:47:21.975Z,4.50
2024-02-21T21:49:49.787Z,5.00
2024-02-21T21:52:18.506Z,3.50
2024-02-21T21:54:45.922Z,4.53
2024-02-21T21:57:13.296Z,4.10
2024-02-21T21:59:40.678Z,4.18
2024-02-21T22:02:08.170Z,4.18
2024-02-21T22:04:36.199Z,7.15
2024-02-21T22:07:03.676Z,3.20
2024-02-21T22:09:32.439Z,5.75
2024-02-21T22:11:59.924Z,7.68
2024-02-21T22:14:27.974Z,5.78
2024-02-21T22:16:56.416Z,5.70
2024-02-21T22:19:23.898Z,3.10
2024-02-21T22:21:51.284Z,8.43
2024-02-21T22:24:20.044Z,5.65
2024-02-21T22:26:51.422Z,6.38
2024-02-21T22:29:18.858Z,9.18
2024-02-21T22:31:46.272Z,5.55
2024-02-21T22:34:13.882Z,4.28
2024-02-21T22:36:41.503Z,3.67
2024-02-21T22:39:09.843Z,2.15
2024-02-21T22:41:37.353Z,5.40
2024-02-21T22:44:06.240Z,3.38
2024-02-21T22:46:33.696Z,3.90
2024-02-21T22:49:01.164Z,6.68
2024-02-21T22:51:29.457Z,6.50
2024-02-21T22:53:58.597Z,2.50
2024-02-21T22:56:26.017Z,5.10
2024-02-21T22:58:53.589Z,3.50
2024-02-21T23:01:22.373Z,4.80
2024-02-21T23:03:49.870Z,3.25
2024-02-21T23:06:17.400Z,7.32
2024-02-21T23:08:44.836Z,2.85
2024-02-21T23:11:12.326Z,2.90
2024-02-21T23:13:40.397Z,3.88
2024-02-21T23:16:08.105Z,3.88
2024-02-21T23:18:37.826Z,3.92
2024-02-21T23:21:07.434Z,3.72
2024-02-21T23:23:34.823Z,4.75
2024-02-21T23:26:02.279Z,4.03
2024-02-21T23:28:29.808Z,4.05
2024-02-21T23:30:57.233Z,3.63
2024-02-21T23:33:24.629Z,4.68
2024-02-21T23:35:53.352Z,5.25
2024-02-21T23:38:20.732Z,5.40
2024-02-21T23:40:48.162Z,4.15
2024-02-21T23:43:15.569Z,2.45
2024-02-21T23:45:43.530Z,3.03
2024-02-21T23:48:13.804Z,5.93
2024-02-21T23:50:41.260Z,2.75
2024-02-21T23:53:10.582Z,1.20
2024-02-21T23:55:38.044Z,4.20
2024-02-21T23:58:05.618Z,1.02
